sensor_id;sensor_type;location;lat;lon;timestamp;pressure;altitude;pressure_sealevel;temperature;humidity
71964;BME280;59834;52.124;5.422;2023-07-24T00:00:03;100454.63;;;17.76;98.04
71964;BME280;59834;52.124;5.422;2023-07-24T00:02:30;100450.19;;;17.76;98.18
71964;BME280;59834;52.124;5.422;2023-07-24T00:04:57;100459.41;;;17.72;98.05
71964;BME280;59834;52.124;5.422;2023-07-24T00:07:23;100459.00;;;17.67;97.92
71964;BME280;59834;52.124;5.422;2023-07-24T00:09:51;100462.66;;;17.66;97.89
71964;BME280;59834;52.124;5.422;2023-07-24T00:12:18;100457.38;;;17.66;98.07
71964;BME280;59834;52.124;5.422;2023-07-24T00:14:44;100452.06;;;17.66;98.54
71964;BME280;59834;52.124;5.422;2023-07-24T00:17:11;100453.19;;;17.63;97.75
71964;BME280;59834;52.124;5.422;2023-07-24T00:19:37;100449.59;;;17.64;98.05
71964;BME280;59834;52.124;5.422;2023-07-24T00:22:04;100445.44;;;17.62;98.08
71964;BME280;59834;52.124;5.422;2023-07-24T00:24:31;100447.69;;;17.57;97.83
71964;BME280;59834;52.124;5.422;2023-07-24T00:26:58;100439.69;;;17.49;98.44
71964;BME280;59834;52.124;5.422;2023-07-24T00:29:25;100437.50;;;17.44;99.10
71964;BME280;59834;52.124;5.422;2023-07-24T00:31:51;100438.63;;;17.41;98.76
71964;BME280;59834;52.124;5.422;2023-07-24T00:34:18;100433.94;;;17.35;98.25
71964;BME280;59834;52.124;5.422;2023-07-24T00:36:44;100430.91;;;17.30;98.67
71964;BME280;59834;52.124;5.422;2023-07-24T00:39:14;100439.16;;;17.27;99.11
71964;BME280;59834;52.124;5.422;2023-07-24T00:41:41;100434.31;;;17.23;99.26
71964;BME280;59834;52.124;5.422;2023-07-24T00:44:08;100430.00;;;17.22;100.00
71964;BME280;59834;52.124;5.422;2023-07-24T00:46:35;100424.72;;;17.22;100.00
71964;BME280;59834;52.124;5.422;2023-07-24T00:49:03;100420.13;;;17.24;100.00
71964;BME280;59834;52.124;5.422;2023-07-24T00:51:30;100417.31;;;17.25;100.00
71964;BME280;59834;52.124;5.422;2023-07-24T00:54:00;100409.38;;;17.25;100.00
71964;BME280;59834;52.124;5.422;2023-07-24T00:56:28;100405.75;;;17.26;100.00
71964;BME280;59834;52.124;5.422;2023-07-24T00:58:57;100394.34;;;17.26;100.00
71964;BME280;59834;52.124;5.422;2023-07-24T01:01:25;100397.16;;;17.24;100.00
71964;BME280;59834;52.124;5.422;2023-07-24T01:03:52;100389.75;;;17.28;100.00
71964;BME280;59834;52.124;5.422;2023-07-24T01:06:19;100393.88;;;17.30;100.00
71964;BME280;59834;52.124;5.422;2023-07-24T01:08:45;100390.41;;;17.30;100.00
71964;BME280;59834;52.124;5.422;2023-07-24T01:11:19;100397.16;;;17.24;100.00
71964;BME280;59834;52.124;5.422;2023-07-24T01:16:41;100389.50;;;17.21;100.00
71964;BME280;59834;52.124;5.422;2023-07-24T01:25:18;100389.50;;;17.21;100.00
71964;BME280;59834;52.124;5.422;2023-07-24T01:27:49;100393.13;;;17.20;100.00
71964;BME280;59834;52.124;5.422;2023-07-24T01:30:19;100381.88;;;17.18;100.00
71964;BME280;59834;52.124;5.422;2023-07-24T01:32:46;100391.47;;;17.19;100.00
71964;BME280;59834;52.124;5.422;2023-07-24T01:35:14;100392.59;;;17.16;100.00
71964;BME280;59834;52.124;5.422;2023-07-24T01:37:42;100382.19;;;17.15;100.00
71964;BME280;59834;52.124;5.422;2023-07-24T01:40:10;100387.47;;;17.15;100.00
71964;BME280;59834;52.124;5.422;2023-07-24T01:42:37;100384.81;;;17.15;100.00
71964;BME280;59834;52.124;5.422;2023-07-24T01:45:05;100382.88;;;17.17;100.00
71964;BME280;59834;52.124;5.422;2023-07-24T01:47:32;100373.94;;;17.18;100.00
71964;BME280;59834;52.124;5.422;2023-07-24T01:49:58;100375.59;;;17.19;100.00
71964;BME280;59834;52.124;5.422;2023-07-24T01:52:26;100364.66;;;17.14;100.00
71964;BME280;59834;52.124;5.422;2023-07-24T01:54:52;100362.31;;;17.11;100.00
71964;BME280;59834;52.124;5.422;2023-07-24T01:57:19;100355.63;;;17.07;100.00
71964;BME280;59834;52.124;5.422;2023-07-24T01:59:45;100354.28;;;17.03;100.00
71964;BME280;59834;52.124;5.422;2023-07-24T02:02:12;100352.81;;;17.00;100.00
71964;BME280;59834;52.124;5.422;2023-07-24T02:04:39;100349.28;;;17.00;100.00
71964;BME280;59834;52.124;5.422;2023-07-24T02:07:05;100349.28;;;17.00;100.00
71964;BME280;59834;52.124;5.422;2023-07-24T02:09:32;100349.00;;;17.03;100.00
71964;BME280;59834;52.124;5.422;2023-07-24T02:11:58;100349.69;;;17.05;100.00
71964;BME280;59834;52.124;5.422;2023-07-24T02:14:25;100351.22;;;17.07;100.00
71964;BME280;59834;52.124;5.422;2023-07-24T02:16:53;100346.06;;;17.06;100.00
71964;BME280;59834;52.124;5.422;2023-07-24T02:19:19;100349.00;;;17.03;100.00
71964;BME280;59834;52.124;5.422;2023-07-24T02:21:46;100346.53;;;17.01;100.00
71964;BME280;59834;52.124;5.422;2023-07-24T02:24:13;100338.59;;;17.01;100.00
71964;BME280;59834;52.124;5.422;2023-07-24T02:26:39;100335.25;;;16.99;100.00
71964;BME280;59834;52.124;5.422;2023-07-24T02:29:06;100334.72;;;16.95;100.00
71964;BME280;59834;52.124;5.422;2023-07-24T02:31:33;100330.44;;;16.94;100.00
71964;BME280;59834;52.124;5.422;2023-07-24T02:34:00;100329.75;;;16.92;100.00
71964;BME280;59834;52.124;5.422;2023-07-24T02:36:27;100328.09;;;16.91;100.00
71964;BME280;59834;52.124;5.422;2023-07-24T02:38:54;100324.63;;;16.91;100.00
71964;BME280;59834;52.124;5.422;2023-07-24T02:41:20;100322.78;;;16.91;100.00
71964;BME280;59834;52.124;5.422;2023-07-24T02:43:47;100322.63;;;16.93;100.00
71964;BME280;59834;52.124;5.422;2023-07-24T02:46:13;100316.38;;;16.94;100.00
71964;BME280;59834;52.124;5.422;2023-07-24T02:48:40;100318.34;;;16.92;100.00
71964;BME280;59834;52.124;5.422;2023-07-24T02:51:07;100315.69;;;16.92;100.00
71964;BME280;59834;52.124;5.422;2023-07-24T02:53:33;100314.88;;;16.91;100.00
71964;BME280;59834;52.124;5.422;2023-07-24T02:56:01;100313.88;;;16.92;100.00
71964;BME280;59834;52.124;5.422;2023-07-24T02:58:28;100321.81;;;16.92;100.00
71964;BME280;59834;52.124;5.422;2023-07-24T03:01:05;100316.53;;;16.92;100.00
71964;BME280;59834;52.124;5.422;2023-07-24T03:03:33;100311.22;;;16.92;100.00
71964;BME280;59834;52.124;5.422;2023-07-24T03:06:00;100309.28;;;16.94;100.00
71964;BME280;59834;52.124;5.422;2023-07-24T03:08:27;100307.63;;;16.93;100.00
71964;BME280;59834;52.124;5.422;2023-07-24T03:10:53;100313.75;;;16.94;100.00
71964;BME280;59834;52.124;5.422;2023-07-24T03:13:20;100302.19;;;16.95;100.00
71964;BME280;59834;52.124;5.422;2023-07-24T03:15:55;100306.63;;;16.94;100.00
71964;BME280;59834;52.124;5.422;2023-07-24T03:18:22;100305.94;;;16.92;100.00
71964;BME280;59834;52.124;5.422;2023-07-24T03:20:49;100313.22;;;16.90;100.00
71964;BME280;59834;52.124;5.422;2023-07-24T03:23:15;100298.31;;;16.89;100.00
71964;BME280;59834;52.124;5.422;2023-07-24T03:25:42;100293.19;;;16.88;100.00
71964;BME280;59834;52.124;5.422;2023-07-24T03:28:09;100285.41;;;16.86;100.00
71964;BME280;59834;52.124;5.422;2023-07-24T03:30:35;100284.75;;;16.84;100.00
71964;BME280;59834;52.124;5.422;2023-07-24T03:33:03;100295.63;;;16.81;100.00
71964;BME280;59834;52.124;5.422;2023-07-24T03:35:30;100297.56;;;16.79;100.00
71964;BME280;59834;52.124;5.422;2023-07-24T03:37:57;100300.19;;;16.79;100.00
71964;BME280;59834;52.124;5.422;2023-07-24T03:40:24;100301.19;;;16.78;100.00
71964;BME280;59834;52.124;5.422;2023-07-24T03:42:50;100291.88;;;16.74;100.00
71964;BME280;59834;52.124;5.422;2023-07-24T03:45:17;100294.66;;;16.72;100.00
71964;BME280;59834;52.124;5.422;2023-07-24T03:47:43;100300.78;;;16.73;100.00
71964;BME280;59834;52.124;5.422;2023-07-24T03:50:10;100288.53;;;16.72;100.00
71964;BME280;59834;52.124;5.422;2023-07-24T03:52:37;100279.78;;;16.71;100.00
71964;BME280;59834;52.124;5.422;2023-07-24T03:55:04;100283.44;;;16.70;100.00
71964;BME280;59834;52.124;5.422;2023-07-24T03:57:30;100291.66;;;16.67;100.00
71964;BME280;59834;52.124;5.422;2023-07-24T03:59:57;100293.59;;;16.65;100.00
71964;BME280;59834;52.124;5.422;2023-07-24T04:02:23;100291.94;;;16.64;100.00
71964;BME280;59834;52.124;5.422;2023-07-24T04:04:50;100287.50;;;16.65;100.00
71964;BME280;59834;52.124;5.422;2023-07-24T04:07:17;100288.63;;;16.62;100.00
71964;BME280;59834;52.124;5.422;2023-07-24T04:09:43;100298.34;;;16.62;100.00
71964;BME280;59834;52.124;5.422;2023-07-24T04:12:10;100290.44;;;16.62;100.00
71964;BME280;59834;52.124;5.422;2023-07-24T04:14:36;100287.78;;;16.62;100.00
71964;BME280;59834;52.124;5.422;2023-07-24T04:17:03;100289.72;;;16.60;100.00
71964;BME280;59834;52.124;5.422;2023-07-24T04:19:31;100290.72;;;16.59;100.00
71964;BME280;59834;52.124;5.422;2023-07-24T04:21:58;100283.91;;;16.56;100.00
71964;BME280;59834;52.124;5.422;2023-07-24T04:24:24;100281.28;;;16.56;100.00
71964;BME280;59834;52.124;5.422;2023-07-24T04:26:51;100285.59;;;16.57;100.00
71964;BME280;59834;52.124;5.422;2023-07-24T04:29:18;100289.38;;;16.55;100.00
71964;BME280;59834;52.124;5.422;2023-07-24T04:31:44;100287.72;;;16.54;100.00
71964;BME280;59834;52.124;5.422;2023-07-24T04:34:11;100294.34;;;16.58;100.00
71964;BME280;59834;52.124;5.422;2023-07-24T04:36:37;100288.09;;;16.59;100.00
71964;BME280;59834;52.124;5.422;2023-07-24T04:39:04;100298.34;;;16.62;100.00
71964;BME280;59834;52.124;5.422;2023-07-24T04:41:30;100307.09;;;16.62;100.00
71964;BME280;59834;52.124;5.422;2023-07-24T04:43:57;100299.72;;;16.66;100.00
71964;BME280;59834;52.124;5.422;2023-07-24T04:46:23;100299.72;;;16.66;100.00
71964;BME280;59834;52.124;5.422;2023-07-24T04:48:50;100300.69;;;16.65;100.00
71964;BME280;59834;52.124;5.422;2023-07-24T04:51:17;100302.00;;;16.61;100.00
71964;BME280;59834;52.124;5.422;2023-07-24T04:53:45;100297.00;;;16.58;100.00
71964;BME280;59834;52.124;5.422;2023-07-24T04:56:11;100287.56;;;16.55;100.00
71964;BME280;59834;52.124;5.422;2023-07-24T04:58:38;100286.84;;;16.53;100.00
71964;BME280;59834;52.124;5.422;2023-07-24T05:01:05;100292.59;;;16.48;100.00
71964;BME280;59834;52.124;5.422;2023-07-24T05:03:32;100292.91;;;16.45;100.00
71964;BME280;59834;52.124;5.422;2023-07-24T05:05:58;100299.00;;;16.46;100.00
71964;BME280;59834;52.124;5.422;2023-07-24T05:08:25;100293.72;;;16.46;100.00
71964;BME280;59834;52.124;5.422;2023-07-24T05:10:56;100304.16;;;16.47;100.00
71964;BME280;59834;52.124;5.422;2023-07-24T05:13:23;100296.22;;;16.47;100.00
71964;BME280;59834;52.124;5.422;2023-07-24T05:15:49;100291.78;;;16.48;100.00
71964;BME280;59834;52.124;5.422;2023-07-24T05:18:16;100296.59;;;16.53;100.00
71964;BME280;59834;52.124;5.422;2023-07-24T05:20:45;100298.34;;;16.62;100.00
71964;BME280;59834;52.124;5.422;2023-07-24T05:23:13;100301.41;;;16.67;100.00
71964;BME280;59834;52.124;5.422;2023-07-24T05:25:40;100298.59;;;16.68;100.00
71964;BME280;59834;52.124;5.422;2023-07-24T05:28:06;100305.41;;;16.71;100.00
71964;BME280;59834;52.124;5.422;2023-07-24T05:30:33;100307.47;;;16.77;100.00
71964;BME280;59834;52.124;5.422;2023-07-24T05:33:00;100303.69;;;16.98;100.00
71964;BME280;59834;52.124;5.422;2023-07-24T05:35:27;100305.94;;;16.92;100.00
71964;BME280;59834;52.124;5.422;2023-07-24T05:37:53;100305.28;;;16.90;100.00
71964;BME280;59834;52.124;5.422;2023-07-24T05:40:20;100304.97;;;16.93;100.00
71964;BME280;59834;52.124;5.422;2023-07-24T05:42:46;100302.56;;;17.00;100.00
71964;BME280;59834;52.124;5.422;2023-07-24T05:45:14;100298.94;;;17.01;100.00
71964;BME280;59834;52.124;5.422;2023-07-24T05:47:43;100307.84;;;17.00;100.00
71964;BME280;59834;52.124;5.422;2023-07-24T05:50:10;100299.06;;;17.00;100.00
71964;BME280;59834;52.124;5.422;2023-07-24T05:52:36;100295.53;;;17.09;100.00
71964;BME280;59834;52.124;5.422;2023-07-24T05:55:03;100296.56;;;17.16;100.00
71964;BME280;59834;52.124;5.422;2023-07-24T05:57:30;100310.44;;;17.36;100.00
71964;BME280;59834;52.124;5.422;2023-07-24T05:59:56;100306.91;;;17.53;100.00
71964;BME280;59834;52.124;5.422;2023-07-24T06:02:23;100308.81;;;17.61;100.00
71964;BME280;59834;52.124;5.422;2023-07-24T06:04:50;100316.06;;;17.59;99.84
71964;BME280;59834;52.124;5.422;2023-07-24T06:07:16;100307.88;;;17.96;98.64
71964;BME280;59834;52.124;5.422;2023-07-24T06:09:43;100304.03;;;18.33;96.06
71964;BME280;59834;52.124;5.422;2023-07-24T06:12:09;100309.94;;;18.69;94.23
71964;BME280;59834;52.124;5.422;2023-07-24T06:14:37;100306.81;;;19.80;88.10
71964;BME280;59834;52.124;5.422;2023-07-24T06:17:04;100303.19;;;20.60;82.24
71964;BME280;59834;52.124;5.422;2023-07-24T06:19:30;100307.63;;;21.36;79.84
71964;BME280;59834;52.124;5.422;2023-07-24T06:21:57;100304.00;;;21.97;76.34
71964;BME280;59834;52.124;5.422;2023-07-24T06:24:23;100303.06;;;22.04;73.21
71964;BME280;59834;52.124;5.422;2023-07-24T06:26:50;100306.72;;;20.98;76.98
71964;BME280;59834;52.124;5.422;2023-07-24T06:29:17;100307.38;;;20.46;79.25
71964;BME280;59834;52.124;5.422;2023-07-24T06:31:43;100309.56;;;19.95;81.42
71964;BME280;59834;52.124;5.422;2023-07-24T06:34:10;100315.28;;;19.59;81.90
71964;BME280;59834;52.124;5.422;2023-07-24T06:36:36;100310.50;;;19.46;83.54
71964;BME280;59834;52.124;5.422;2023-07-24T06:39:03;100315.25;;;19.84;81.88
71964;BME280;59834;52.124;5.422;2023-07-24T06:41:29;100310.47;;;19.63;82.80
71964;BME280;59834;52.124;5.422;2023-07-24T06:43:56;100314.56;;;19.98;81.54
71964;BME280;59834;52.124;5.422;2023-07-24T06:46:23;100313.00;;;20.12;78.63
71964;BME280;59834;52.124;5.422;2023-07-24T06:48:51;100314.41;;;19.91;79.54
71964;BME280;59834;52.124;5.422;2023-07-24T06:51:17;100317.63;;;19.70;80.31
71964;BME280;59834;52.124;5.422;2023-07-24T06:53:44;100321.75;;;19.57;81.01
71964;BME280;59834;52.124;5.422;2023-07-24T06:56:10;100313.13;;;19.54;81.33
71964;BME280;59834;52.124;5.422;2023-07-24T06:58:37;100309.34;;;19.65;81.69
71964;BME280;59834;52.124;5.422;2023-07-24T07:01:06;100302.31;;;19.81;79.87
71964;BME280;59834;52.124;5.422;2023-07-24T07:03:33;100307.38;;;20.46;78.08
71964;BME280;59834;52.124;5.422;2023-07-24T07:06:01;100304.88;;;20.76;77.02
71964;BME280;59834;52.124;5.422;2023-07-24T07:08:31;100307.50;;;20.21;77.08
71964;BME280;59834;52.124;5.422;2023-07-24T07:10:59;100311.31;;;19.80;78.71
71964;BME280;59834;52.124;5.422;2023-07-24T07:13:26;100312.47;;;19.61;79.96
71964;BME280;59834;52.124;5.422;2023-07-24T07:15:53;100314.63;;;19.57;79.67
71964;BME280;59834;52.124;5.422;2023-07-24T07:18:19;100317.63;;;19.46;80.01
71964;BME280;59834;52.124;5.422;2023-07-24T07:20:50;100316.97;;;19.36;80.23
71964;BME280;59834;52.124;5.422;2023-07-24T07:23:17;100323.91;;;19.45;80.00
71964;BME280;59834;52.124;5.422;2023-07-24T07:25:44;100323.91;;;19.45;79.60
71964;BME280;59834;52.124;5.422;2023-07-24T07:28:15;100328.91;;;19.48;80.49
71964;BME280;59834;52.124;5.422;2023-07-24T07:30:43;100321.06;;;19.87;80.39
71964;BME280;59834;52.124;5.422;2023-07-24T07:33:11;100320.34;;;20.41;77.76
71964;BME280;59834;52.124;5.422;2023-07-24T07:35:38;100320.69;;;20.46;76.82
71964;BME280;59834;52.124;5.422;2023-07-24T07:38:04;100310.28;;;20.28;76.62
71964;BME280;59834;52.124;5.422;2023-07-24T07:40:31;100298.94;;;19.95;77.01
71964;BME280;59834;52.124;5.422;2023-07-24T07:42:58;100309.81;;;19.85;78.92
71964;BME280;59834;52.124;5.422;2023-07-24T07:45:24;100306.03;;;20.19;77.78
71964;BME280;59834;52.124;5.422;2023-07-24T07:47:51;100297.78;;;20.37;76.30
71964;BME280;59834;52.124;5.422;2023-07-24T07:50:19;100288.94;;;20.13;75.24
71964;BME280;59834;52.124;5.422;2023-07-24T07:52:50;100294.41;;;20.12;75.79
71964;BME280;59834;52.124;5.422;2023-07-24T07:55:18;100291.72;;;20.20;74.84
71964;BME280;59834;52.124;5.422;2023-07-24T07:57:44;100292.50;;;20.29;74.60
71964;BME280;59834;52.124;5.422;2023-07-24T08:00:11;100298.66;;;20.29;75.78
71964;BME280;59834;52.124;5.422;2023-07-24T08:02:39;100290.44;;;20.16;74.93
71964;BME280;59834;52.124;5.422;2023-07-24T08:05:10;100289.38;;;19.86;76.09
71964;BME280;59834;52.124;5.422;2023-07-24T08:07:47;100285.75;;;19.70;77.33
71964;BME280;59834;52.124;5.422;2023-07-24T08:10:13;100283.25;;;19.61;77.39
71964;BME280;59834;52.124;5.422;2023-07-24T08:12:43;100282.81;;;19.49;77.18
71964;BME280;59834;52.124;5.422;2023-07-24T08:15:10;100286.63;;;19.46;77.57
71964;BME280;59834;52.124;5.422;2023-07-24T08:17:37;100294.06;;;19.67;78.21
71964;BME280;59834;52.124;5.422;2023-07-24T08:20:04;100285.19;;;19.99;76.85
71964;BME280;59834;52.124;5.422;2023-07-24T08:22:31;100288.28;;;20.11;74.77
71964;BME280;59834;52.124;5.422;2023-07-24T08:24:57;100286.81;;;20.00;75.32
71964;BME280;59834;52.124;5.422;2023-07-24T08:27:24;100283.91;;;20.27;75.14
71964;BME280;59834;52.124;5.422;2023-07-24T08:29:51;100287.44;;;20.42;73.71
71964;BME280;59834;52.124;5.422;2023-07-24T08:32:19;100285.81;;;20.41;74.56
71964;BME280;59834;52.124;5.422;2023-07-24T08:34:51;100286.91;;;20.55;74.87
71964;BME280;59834;52.124;5.422;2023-07-24T08:37:17;100296.69;;;20.62;73.71
71964;BME280;59834;52.124;5.422;2023-07-24T08:39:44;100296.28;;;20.74;72.34
71964;BME280;59834;52.124;5.422;2023-07-24T08:42:12;100293.38;;;20.60;71.78
71964;BME280;59834;52.124;5.422;2023-07-24T08:44:39;100296.16;;;20.36;72.94
71964;BME280;59834;52.124;5.422;2023-07-24T08:47:14;100292.13;;;20.40;73.92
71964;BME280;59834;52.124;5.422;2023-07-24T08:50:13;100289.56;;;20.15;73.57
71964;BME280;59834;52.124;5.422;2023-07-24T08:52:44;100285.66;;;20.03;74.84
71964;BME280;59834;52.124;5.422;2023-07-24T08:55:14;100301.00;;;20.32;74.41
71964;BME280;59834;52.124;5.422;2023-07-24T08:57:41;100288.41;;;20.80;73.16
71964;BME280;59834;52.124;5.422;2023-07-24T09:00:08;100291.41;;;21.23;71.84
71964;BME280;59834;52.124;5.422;2023-07-24T09:02:35;100281.50;;;21.32;70.22
71964;BME280;59834;52.124;5.422;2023-07-24T09:05:02;100301.66;;;21.49;70.65
71964;BME280;59834;52.124;5.422;2023-07-24T09:07:30;100279.75;;;21.92;67.81
71964;BME280;59834;52.124;5.422;2023-07-24T09:09:58;100274.78;;;21.74;68.25
71964;BME280;59834;52.124;5.422;2023-07-24T09:12:24;100268.97;;;22.00;68.01
71964;BME280;59834;52.124;5.422;2023-07-24T09:15:04;100283.00;;;22.38;67.06
71964;BME280;59834;52.124;5.422;2023-07-24T09:17:33;100271.38;;;22.61;65.38
71964;BME280;59834;52.124;5.422;2023-07-24T09:20:00;100272.56;;;22.22;66.49
71964;BME280;59834;52.124;5.422;2023-07-24T09:22:28;100260.28;;;21.91;66.26
71964;BME280;59834;52.124;5.422;2023-07-24T09:24:56;100258.63;;;21.75;67.91
71964;BME280;59834;52.124;5.422;2023-07-24T09:27:29;100265.41;;;21.48;67.76
71964;BME280;59834;52.124;5.422;2023-07-24T09:29:58;100256.72;;;21.31;68.16
71964;BME280;59834;52.124;5.422;2023-07-24T09:32:26;100256.34;;;21.19;70.87
71964;BME280;59834;52.124;5.422;2023-07-24T09:34:53;100257.13;;;21.05;70.38
71964;BME280;59834;52.124;5.422;2023-07-24T09:39:51;100237.81;;;20.65;70.49
71964;BME280;59834;52.124;5.422;2023-07-24T09:42:36;100238.25;;;20.54;72.11
71964;BME280;59834;52.124;5.422;2023-07-24T09:45:25;100239.56;;;20.50;71.63
71964;BME280;59834;52.124;5.422;2023-07-24T09:47:52;100233.44;;;20.49;72.38
71964;BME280;59834;52.124;5.422;2023-07-24T09:50:31;100242.88;;;20.52;71.00
71964;BME280;59834;52.124;5.422;2023-07-24T09:52:58;100245.03;;;20.57;70.89
71964;BME280;59834;52.124;5.422;2023-07-24T09:55:35;100259.56;;;20.69;70.45
71964;BME280;59834;52.124;5.422;2023-07-24T09:58:06;100260.53;;;20.76;70.12
71964;BME280;59834;52.124;5.422;2023-07-24T10:00:33;100268.44;;;21.07;69.30
71964;BME280;59834;52.124;5.422;2023-07-24T10:03:00;100263.69;;;21.32;67.41
71964;BME280;59834;52.124;5.422;2023-07-24T10:05:28;100250.88;;;21.36;67.59
71964;BME280;59834;52.124;5.422;2023-07-24T10:07:55;100247.16;;;21.60;66.20
71964;BME280;59834;52.124;5.422;2023-07-24T10:10:22;100251.63;;;21.45;66.14
71964;BME280;59834;52.124;5.422;2023-07-24T10:12:49;100254.66;;;21.41;67.20
71964;BME280;59834;52.124;5.422;2023-07-24T10:15:16;100265.50;;;21.55;66.97
71964;BME280;59834;52.124;5.422;2023-07-24T10:17:43;100252.22;;;21.70;66.99
71964;BME280;59834;52.124;5.422;2023-07-24T10:20:11;100245.41;;;21.67;65.85
71964;BME280;59834;52.124;5.422;2023-07-24T10:22:42;100251.16;;;22.00;66.18
71964;BME280;59834;52.124;5.422;2023-07-24T10:25:10;100242.44;;;22.43;63.78
71964;BME280;59834;52.124;5.422;2023-07-24T10:27:46;100224.22;;;22.25;63.71
71964;BME280;59834;52.124;5.422;2023-07-24T10:30:14;100230.69;;;21.71;66.04
71964;BME280;59834;52.124;5.422;2023-07-24T10:35:39;100234.66;;;21.23;65.40
71964;BME280;59834;52.124;5.422;2023-07-24T10:38:06;100235.22;;;21.18;67.07
71964;BME280;59834;52.124;5.422;2023-07-24T10:40:33;100230.44;;;21.36;66.03
71964;BME280;59834;52.124;5.422;2023-07-24T10:43:04;100229.69;;;21.57;65.59
71964;BME280;59834;52.124;5.422;2023-07-24T10:45:47;100228.84;;;21.72;65.53
71964;BME280;59834;52.124;5.422;2023-07-24T10:48:19;100227.00;;;22.17;64.74
71964;BME280;59834;52.124;5.422;2023-07-24T10:50:48;100222.00;;;22.13;64.74
71964;BME280;59834;52.124;5.422;2023-07-24T10:53:21;100217.84;;;22.26;64.05
71964;BME280;59834;52.124;5.422;2023-07-24T10:55:48;100216.47;;;22.73;62.38
71964;BME280;59834;52.124;5.422;2023-07-24T10:58:14;100218.28;;;22.44;60.52
71964;BME280;59834;52.124;5.422;2023-07-24T11:00:42;100221.09;;;22.06;62.19
71964;BME280;59834;52.124;5.422;2023-07-24T11:03:11;100213.22;;;21.98;62.22
71964;BME280;59834;52.124;5.422;2023-07-24T11:05:42;100222.16;;;21.91;63.73
71964;BME280;59834;52.124;5.422;2023-07-24T11:08:13;100225.09;;;21.81;62.65
71964;BME280;59834;52.124;5.422;2023-07-24T11:10:53;100222.31;;;21.89;63.64
71964;BME280;59834;52.124;5.422;2023-07-24T11:13:21;100214.56;;;22.24;63.02
71964;BME280;59834;52.124;5.422;2023-07-24T11:15:49;100219.78;;;22.32;63.47
71964;BME280;59834;52.124;5.422;2023-07-24T11:18:16;100214.50;;;22.39;62.13
71964;BME280;59834;52.124;5.422;2023-07-24T11:20:50;100223.25;;;22.32;61.90
71964;BME280;59834;52.124;5.422;2023-07-24T11:23:17;100228.94;;;22.44;61.77
71964;BME280;59834;52.124;5.422;2023-07-24T11:25:45;100223.66;;;22.51;62.20
71964;BME280;59834;52.124;5.422;2023-07-24T11:28:13;100223.78;;;22.64;62.30
71964;BME280;59834;52.124;5.422;2023-07-24T11:30:41;100232.72;;;22.56;61.84
71964;BME280;59834;52.124;5.422;2023-07-24T11:33:10;100234.97;;;22.74;62.93
71964;BME280;59834;52.124;5.422;2023-07-24T11:35:38;100227.72;;;23.11;61.08
71964;BME280;59834;52.124;5.422;2023-07-24T11:38:09;100245.31;;;23.05;61.14
71964;BME280;59834;52.124;5.422;2023-07-24T11:40:38;100238.66;;;23.23;61.16
71964;BME280;59834;52.124;5.422;2023-07-24T11:43:05;100251.03;;;22.81;62.48
71964;BME280;59834;52.124;5.422;2023-07-24T11:45:41;100252.41;;;22.34;63.94
71964;BME280;59834;52.124;5.422;2023-07-24T11:48:09;100244.38;;;21.98;64.46
71964;BME280;59834;52.124;5.422;2023-07-24T11:50:45;100240.63;;;21.77;65.73
71964;BME280;59834;52.124;5.422;2023-07-24T11:53:38;100244.66;;;21.58;67.15
71964;BME280;59834;52.124;5.422;2023-07-24T11:56:13;100247.22;;;21.37;68.05
71964;BME280;59834;52.124;5.422;2023-07-24T11:58:40;100254.41;;;21.13;69.40
71964;BME280;59834;52.124;5.422;2023-07-24T12:01:07;100252.13;;;20.87;70.47
71964;BME280;59834;52.124;5.422;2023-07-24T12:03:33;100250.25;;;20.73;71.23
71964;BME280;59834;52.124;5.422;2023-07-24T12:06:02;100250.34;;;20.57;71.76
71964;BME280;59834;52.124;5.422;2023-07-24T12:08:35;100242.66;;;20.62;71.95
71964;BME280;59834;52.124;5.422;2023-07-24T12:11:02;100243.91;;;20.74;70.42
71964;BME280;59834;52.124;5.422;2023-07-24T12:13:29;100236.28;;;20.94;70.87
71964;BME280;59834;52.124;5.422;2023-07-24T12:15:57;100247.28;;;20.91;71.38
71964;BME280;59834;52.124;5.422;2023-07-24T12:18:24;100235.59;;;21.15;70.16
71964;BME280;59834;52.124;5.422;2023-07-24T12:20:51;100236.91;;;21.34;69.88
71964;BME280;59834;52.124;5.422;2023-07-24T12:23:17;100235.19;;;21.56;68.87
71964;BME280;59834;52.124;5.422;2023-07-24T12:25:44;100222.81;;;21.78;66.54
71964;BME280;59834;52.124;5.422;2023-07-24T12:28:10;100225.09;;;21.81;66.68
71964;BME280;59834;52.124;5.422;2023-07-24T12:30:37;100212.53;;;22.11;64.80
71964;BME280;59834;52.124;5.422;2023-07-24T12:33:04;100218.31;;;22.15;65.76
71964;BME280;59834;52.124;5.422;2023-07-24T12:35:30;100223.47;;;22.31;65.75
71964;BME280;59834;52.124;5.422;2023-07-24T12:37:57;100219.09;;;22.45;65.51
71964;BME280;59834;52.124;5.422;2023-07-24T12:40:25;100228.72;;;22.24;65.97
71964;BME280;59834;52.124;5.422;2023-07-24T12:42:52;100225.84;;;22.26;66.13
71964;BME280;59834;52.124;5.422;2023-07-24T12:45:19;100224.69;;;22.13;66.85
71964;BME280;59834;52.124;5.422;2023-07-24T12:47:45;100225.50;;;21.99;67.31
71964;BME280;59834;52.124;5.422;2023-07-24T12:50:12;100222.88;;;21.84;67.45
71964;BME280;59834;52.124;5.422;2023-07-24T12:52:38;100221.97;;;21.62;68.10
71964;BME280;59834;52.124;5.422;2023-07-24T12:55:06;100232.78;;;21.46;68.81
71964;BME280;59834;52.124;5.422;2023-07-24T12:57:33;100246.28;;;21.30;71.56
71964;BME280;59834;52.124;5.422;2023-07-24T13:00:00;100245.13;;;21.09;73.42
71964;BME280;59834;52.124;5.422;2023-07-24T13:02:26;100246.78;;;21.10;76.16